createdAt,value
2017-08-06T00:01:52.695Z,10.93
2017-08-06T00:04:20.270Z,10.50
2017-08-06T00:06:48.585Z,11.13
2017-08-06T00:09:16.171Z,13.20
2017-08-06T00:11:43.761Z,12.03
2017-08-06T00:14:11.311Z,12.60
2017-08-06T00:16:38.853Z,11.87
2017-08-06T00:19:06.425Z,12.30
2017-08-06T00:21:33.975Z,12.40
2017-08-06T00:24:01.574Z,11.83
2017-08-06T00:26:29.884Z,11.70
2017-08-06T00:28:57.434Z,11.57
2017-08-06T00:31:25.022Z,11.13
2017-08-06T00:33:52.565Z,11.27
2017-08-06T00:36:20.124Z,10.60
2017-08-06T00:38:47.704Z,11.60
2017-08-06T00:41:15.248Z,12.50
2017-08-06T00:43:42.835Z,12.63
2017-08-06T00:46:10.393Z,12.47
2017-08-06T00:48:37.939Z,13.27
2017-08-06T00:51:05.511Z,12.77
2017-08-06T00:53:33.094Z,12.90
2017-08-06T00:56:01.402Z,13.17
2017-08-06T00:58:28.944Z,13.43
2017-08-06T01:00:56.524Z,12.63
2017-08-06T01:03:24.066Z,13.17
2017-08-06T01:05:51.650Z,15.80
2017-08-06T01:08:19.210Z,14.50
2017-08-06T01:10:46.753Z,13.80
2017-08-06T01:13:14.330Z,12.77
2017-08-06T01:15:41.906Z,13.17
2017-08-06T01:18:09.476Z,15.37
2017-08-06T01:20:37.025Z,14.00
2017-08-06T01:23:04.642Z,15.00
2017-08-06T01:25:32.191Z,14.77
2017-08-06T01:27:59.734Z,14.83
2017-08-06T01:30:28.094Z,14.50
2017-08-06T01:32:55.649Z,14.43
2017-08-06T01:35:23.201Z,13.70
2017-08-06T01:37:50.778Z,14.33
2017-08-06T01:40:19.089Z,15.13
2017-08-06T01:42:46.691Z,15.47
2017-08-06T01:45:14.229Z,15.83
2017-08-06T01:47:41.791Z,14.67
2017-08-06T01:50:09.382Z,14.30
2017-08-06T01:52:36.932Z,16.30
2017-08-06T01:55:04.474Z,15.00
2017-08-06T01:57:32.051Z,13.30
2017-08-06T01:59:59.603Z,15.47
2017-08-06T02:02:27.190Z,14.80
2017-08-06T02:04:55.517Z,17.10
2017-08-06T02:07:23.057Z,16.33
2017-08-06T02:09:50.662Z,14.93
2017-08-06T02:12:18.217Z,16.03
2017-08-06T02:14:45.771Z,15.13
2017-08-06T02:17:13.340Z,15.63
2017-08-06T02:19:40.917Z,14.83
2017-08-06T02:22:08.473Z,15.63
2017-08-06T02:24:36.794Z,16.17
2017-08-06T02:27:04.627Z,16.03
2017-08-06T02:29:32.940Z,17.00
2017-08-06T02:32:00.532Z,16.00
2017-08-06T02:34:28.084Z,16.43
2017-08-06T02:36:55.662Z,15.00
2017-08-06T02:39:24.037Z,11.93
2017-08-06T02:41:51.582Z,9.70
2017-08-06T02:44:19.132Z,9.00
2017-08-06T02:46:46.716Z,10.57
2017-08-06T02:49:14.258Z,10.17
2017-08-06T02:51:41.864Z,9.50
2017-08-06T02:54:09.409Z,9.40
2017-08-06T02:56:37.724Z,8.87
2017-08-06T02:59:05.310Z,10.37
2017-08-06T03:01:32.850Z,10.90
2017-08-06T03:04:00.398Z,10.37
2017-08-06T03:06:27.972Z,11.30
2017-08-06T03:08:55.519Z,12.43
2017-08-06T03:11:23.091Z,11.73
2017-08-06T03:13:50.670Z,14.30
2017-08-06T03:16:18.206Z,13.93
2017-08-06T03:18:45.754Z,14.37
2017-08-06T03:21:13.330Z,10.23
2017-08-06T03:23:40.895Z,12.80
2017-08-06T03:26:08.474Z,12.27
2017-08-06T03:28:36.790Z,12.27
2017-08-06T03:31:04.335Z,12.17
2017-08-06T03:33:31.954Z,14.07
2017-08-06T03:35:59.497Z,11.77
2017-08-06T03:38:27.042Z,10.83
2017-08-06T03:40:54.618Z,10.63
2017-08-06T03:43:22.200Z,10.57
2017-08-06T03:45:49.782Z,11.03
2017-08-06T03:48:17.325Z,10.77
2017-08-06T03:50:45.638Z,12.67
2017-08-06T03:53:13.214Z,11.67
2017-08-06T03:55:40.762Z,10.87
2017-08-06T03:58:08.345Z,11.40
2017-08-06T04:00:35.887Z,13.10
2017-08-06T04:03:03.465Z,11.33
2017-08-06T04:05:31.014Z,11.30
2017-08-06T04:07:58.589Z,11.30
2017-08-06T04:10:26.177Z,10.67
2017-08-06T04:12:54.491Z,10.20
2017-08-06T04:15:22.075Z,9.73
2017-08-06T04:17:49.614Z,11.17
2017-08-06T04:20:17.153Z,12.60
2017-08-06T04:22:44.728Z,14.13
2017-08-06T04:25:12.279Z,13.07
2017-08-06T04:27:39.855Z,12.67
2017-08-06T04:30:07.407Z,13.27
2017-08-06T04:32:35.011Z,14.97
2017-08-06T04:35:03.334Z,14.13
2017-08-06T04:37:30.878Z,14.20
2017-08-06T04:39:58.454Z,14.07
2017-08-06T04:42:25.996Z,13.80
2017-08-06T04:44:53.533Z,15.57
2017-08-06T04:47:21.119Z,15.17
2017-08-06T04:49:48.709Z,12.30
2017-08-06T04:52:16.254Z,13.20
2017-08-06T04:54:43.803Z,11.53
2017-08-06T04:57:11.379Z,9.30
2017-08-06T04:59:38.921Z,9.30
2017-08-06T05:02:06.494Z,8.80
2017-08-06T05:04:34.045Z,10.20
2017-08-06T05:07:01.632Z,11.07
2017-08-06T05:09:29.182Z,11.53
2017-08-06T05:11:56.780Z,11.90
2017-08-06T05:14:25.091Z,13.50
2017-08-06T05:16:52.638Z,13.57
2017-08-06T05:19:20.211Z,12.87
2017-08-06T05:21:47.870Z,13.30
2017-08-06T05:24:15.454Z,14.13
2017-08-06T05:26:43.026Z,12.80
2017-08-06T05:29:10.582Z,12.40
2017-08-06T05:31:38.173Z,14.70
2017-08-06T05:34:06.482Z,13.93
2017-08-06T05:36:34.025Z,14.60
2017-08-06T05:39:01.598Z,13.47
2017-08-06T05:41:29.146Z,15.93
2017-08-06T05:43:56.724Z,17.00
2017-08-06T05:46:24.269Z,16.57
2017-08-06T05:48:52.251Z,15.80
2017-08-06T05:51:19.791Z,16.97
2017-08-06T05:53:47.402Z,16.67
2017-08-06T05:56:15.003Z,14.93
2017-08-06T05:58:42.543Z,14.63
2017-08-06T06:01:10.889Z,16.87
2017-08-06T06:03:38.467Z,15.67
2017-08-06T06:06:06.011Z,15.20
2017-08-06T06:08:33.600Z,14.83
2017-08-06T06:11:01.906Z,15.33
2017-08-06T06:13:29.462Z,17.00
2017-08-06T06:15:57.035Z,15.77
2017-08-06T06:18:24.578Z,14.97
2017-08-06T06:20:52.162Z,16.13
2017-08-06T06:23:19.700Z,15.63
2017-08-06T06:25:47.259Z,15.50
2017-08-06T06:28:14.845Z,14.23
2017-08-06T06:30:42.398Z,14.40
2017-08-06T06:33:09.981Z,13.97
2017-08-06T06:35:37.525Z,15.07
2017-08-06T06:38:05.078Z,11.63
2017-08-06T06:40:32.654Z,12.07
2017-08-06T06:43:00.470Z,11.30
2017-08-06T06:45:28.016Z,11.17
2017-08-06T06:47:55.572Z,11.60
2017-08-06T06:50:23.146Z,12.23
2017-08-06T06:52:50.753Z,11.73
2017-08-06T06:55:18.322Z,11.73
2017-08-06T06:57:45.870Z,10.87
2017-08-06T07:00:13.445Z,10.97
2017-08-06T07:02:41.795Z,11.20
2017-08-06T07:05:09.358Z,9.63
2017-08-06T07:07:36.952Z,9.47
2017-08-06T07:10:04.549Z,8.37
2017-08-06T07:12:32.086Z,7.77
2017-08-06T07:14:59.629Z,9.13
2017-08-06T07:17:27.235Z,8.53
2017-08-06T07:19:55.197Z,7.60
2017-08-06T07:22:22.760Z,8.10
2017-08-06T07:24:50.330Z,8.23
2017-08-06T07:27:17.894Z,7.23
2017-08-06T07:29:45.460Z,6.93
2017-08-06T07:32:13.001Z,7.60
2017-08-06T07:34:40.590Z,6.40
2017-08-06T07:37:08.144Z,6.70
2017-08-06T07:39:35.690Z,6.27
2017-08-06T07:42:03.263Z,5.63
2017-08-06T07:44:30.813Z,6.30
2017-08-06T07:46:58.448Z,6.40
2017-08-06T07:49:25.989Z,6.40
2017-08-06T07:51:53.555Z,5.80
2017-08-06T07:54:21.130Z,6.03
2017-08-06T07:56:48.804Z,6.30
2017-08-06T07:59:16.473Z,6.50
2017-08-06T08:01:44.010Z,5.60
2017-08-06T08:04:11.632Z,5.70
2017-08-06T08:06:39.184Z,6.63
2017-08-06T08:09:07.540Z,6.07
2017-08-06T08:11:35.178Z,5.13
2017-08-06T08:14:02.706Z,5.57
2017-08-06T08:16:30.286Z,5.07
2017-08-06T08:18:57.828Z,5.63
2017-08-06T08:21:25.378Z,4.93
2017-08-06T08:23:52.941Z,4.87
2017-08-06T08:26:20.484Z,2.93
2017-08-06T08:28:48.062Z,4.40
2017-08-06T08:31:15.792Z,4.77
2017-08-06T08:33:43.364Z,4.90
2017-08-06T08:36:10.970Z,3.40
2017-08-06T08:38:38.538Z,3.23
2017-08-06T08:41:06.110Z,2.70
2017-08-06T08:43:33.646Z,2.70
2017-08-06T08:46:01.246Z,2.90
2017-08-06T08:48:28.847Z,3.40
2017-08-06T08:50:56.382Z,3.80
2017-08-06T08:53:24.058Z,3.20
2017-08-06T08:55:51.606Z,3.07
2017-08-06T08:58:19.188Z,2.53
2017-08-06T09:00:46.765Z,3.40
2017-08-06T09:03:14.314Z,2.40
2017-08-06T09:05:41.851Z,2.50
2017-08-06T09:08:09.708Z,1.80
2017-08-06T09:10:37.253Z,2.27
2017-08-06T09:13:04.816Z,2.60
2017-08-06T09:15:32.384Z,2.50
2017-08-06T09:17:59.970Z,3.30
2017-08-06T09:20:27.505Z,3.33
2017-08-06T09:22:55.727Z,2.77
2017-08-06T09:25:23.301Z,3.10
2017-08-06T09:27:51.641Z,2.90
2017-08-06T09:30:20.163Z,3.20
2017-08-06T09:32:47.703Z,3.27
2017-08-06T09:35:16.511Z,4.00
2017-08-06T09:37:44.102Z,2.83
2017-08-06T09:40:11.722Z,2.87
2017-08-06T09:42:40.086Z,2.77
2017-08-06T09:45:07.664Z,2.67
2017-08-06T09:47:36.975Z,3.17
2017-08-06T09:50:04.530Z,2.07
2017-08-06T09:52:33.000Z,1.77
2017-08-06T09:55:01.304Z,2.00
2017-08-06T09:57:29.054Z,2.07
2017-08-06T09:59:56.640Z,1.97
2017-08-06T10:02:24.191Z,2.00
2017-08-06T10:04:51.759Z,1.73
2017-08-06T10:07:19.332Z,2.10
2017-08-06T10:09:46.924Z,2.00
2017-08-06T10:12:16.024Z,1.60
2017-08-06T10:14:43.630Z,1.53
2017-08-06T10:17:11.188Z,2.00
2017-08-06T10:19:38.737Z,1.37
2017-08-06T10:22:06.311Z,2.00
2017-08-06T10:24:33.859Z,2.00
2017-08-06T10:27:01.433Z,2.60
2017-08-06T10:29:28.980Z,2.40
2017-08-06T10:31:56.535Z,2.03
2017-08-06T10:34:24.101Z,3.40
2017-08-06T10:36:51.642Z,2.60
2017-08-06T10:39:19.224Z,2.60
2017-08-06T10:41:46.777Z,1.83
2017-08-06T10:44:14.386Z,2.00
2017-08-06T10:46:42.701Z,7.77
2017-08-06T10:49:10.234Z,4.57
2017-08-06T10:51:38.573Z,1.77
2017-08-06T10:54:06.186Z,1.40
2017-08-06T10:56:33.800Z,1.97
2017-08-06T10:59:01.332Z,1.50
2017-08-06T11:01:28.921Z,1.73
2017-08-06T11:03:56.463Z,1.93
2017-08-06T11:06:23.997Z,1.50
2017-08-06T11:08:51.575Z,1.43
2017-08-06T11:11:19.114Z,1.80
2017-08-06T11:13:46.698Z,1.43
2017-08-06T11:16:14.239Z,2.00
2017-08-06T11:18:41.930Z,1.97
2017-08-06T11:21:09.492Z,1.60
2017-08-06T11:23:37.069Z,2.53
2017-08-06T11:26:05.055Z,1.90
2017-08-06T11:28:34.624Z,1.83
2017-08-06T11:31:02.160Z,1.63
2017-08-06T11:33:30.585Z,1.83
2017-08-06T11:35:58.923Z,1.93
2017-08-06T11:38:26.465Z,1.93
2017-08-06T11:43:48.206Z,1.70
2017-08-06T11:46:15.761Z,1.90
2017-08-06T11:48:43.315Z,2.47
2017-08-06T11:51:10.880Z,2.40
2017-08-06T11:53:38.433Z,2.33
2017-08-06T11:56:06.005Z,2.00
2017-08-06T11:58:33.550Z,2.00
2017-08-06T12:01:01.130Z,2.10
2017-08-06T12:03:28.668Z,2.63
2017-08-06T12:05:56.212Z,1.80
2017-08-06T12:08:23.799Z,1.80
2017-08-06T12:10:51.333Z,2.13
2017-08-06T12:13:18.860Z,2.50
2017-08-06T12:15:47.194Z,1.90
2017-08-06T12:18:14.806Z,1.80
2017-08-06T12:20:43.113Z,2.00
2017-08-06T12:23:10.702Z,2.07
2017-08-06T12:25:38.249Z,1.70
2017-08-06T12:28:05.782Z,2.40
2017-08-06T12:30:33.353Z,1.70
2017-08-06T12:33:00.927Z,2.07
2017-08-06T12:35:29.320Z,2.90
2017-08-06T12:37:56.899Z,1.97
2017-08-06T12:40:25.248Z,1.70
2017-08-06T12:42:52.782Z,2.53
2017-08-06T12:45:20.350Z,2.73
2017-08-06T12:47:47.885Z,2.43
2017-08-06T12:50:15.465Z,2.03
2017-08-06T12:52:43.005Z,1.50
2017-08-06T12:55:10.611Z,2.00
2017-08-06T12:57:38.148Z,1.77
2017-08-06T13:00:06.810Z,2.17
2017-08-06T13:02:34.384Z,1.60
2017-08-06T13:05:01.963Z,1.90
2017-08-06T13:07:29.599Z,1.80
2017-08-06T13:09:57.151Z,1.70
2017-08-06T13:12:24.737Z,1.73
2017-08-06T13:14:52.278Z,1.60
2017-08-06T13:17:19.892Z,1.63
2017-08-06T13:19:49.020Z,1.67
2017-08-06T13:22:16.561Z,1.70
2017-08-06T13:24:44.143Z,1.40
2017-08-06T13:27:11.690Z,1.70
2017-08-06T13:29:39.225Z,1.80
2017-08-06T13:32:07.569Z,1.40
2017-08-06T13:34:35.109Z,2.17
2017-08-06T13:37:02.647Z,1.90
2017-08-06T13:39:30.630Z,1.70
2017-08-06T13:41:58.165Z,1.03
2017-08-06T13:44:25.730Z,1.63
2017-08-06T13:46:53.271Z,1.70
2017-08-06T13:49:20.839Z,1.27
2017-08-06T13:51:48.378Z,1.80
2017-08-06T13:54:16.719Z,1.77
2017-08-06T13:56:44.272Z,2.30
2017-08-06T13:59:12.160Z,1.53
2017-08-06T14:01:39.710Z,1.67
2017-08-06T14:04:07.252Z,1.63
2017-08-06T14:06:34.828Z,1.60
2017-08-06T14:09:03.275Z,1.60
2017-08-06T14:11:30.853Z,1.60
2017-08-06T14:13:58.391Z,1.50
2017-08-06T14:16:25.979Z,1.70
2017-08-06T14:18:53.530Z,1.93
2017-08-06T14:21:21.111Z,1.40
2017-08-06T14:23:48.683Z,1.67
2017-08-06T14:26:17.024Z,1.50
2017-08-06T14:28:44.589Z,1.37
2017-08-06T14:31:12.132Z,1.30
2017-08-06T14:33:39.713Z,1.47
2017-08-06T14:36:07.250Z,1.53
2017-08-06T14:38:34.825Z,1.30
2017-08-06T14:41:02.370Z,1.33
2017-08-06T14:43:29.900Z,1.20
2017-08-06T14:45:57.473Z,1.20
2017-08-06T14:48:25.111Z,1.20
2017-08-06T14:50:53.516Z,1.43
2017-08-06T14:53:21.057Z,1.50
2017-08-06T14:55:48.632Z,1.20
2017-08-06T14:58:16.177Z,1.30
2017-08-06T15:00:43.762Z,1.30
2017-08-06T15:03:11.336Z,1.47
2017-08-06T15:05:38.880Z,1.10
2017-08-06T15:08:06.427Z,1.10
2017-08-06T15:10:34.003Z,1.30
2017-08-06T15:13:01.546Z,1.57
2017-08-06T15:15:29.115Z,1.30
2017-08-06T15:17:56.674Z,1.40
2017-08-06T15:20:24.251Z,1.20
2017-08-06T15:22:51.815Z,1.10
2017-08-06T15:25:19.382Z,1.70
2017-08-06T15:27:46.950Z,1.40
2017-08-06T15:30:14.537Z,1.40
2017-08-06T15:32:42.105Z,1.20
2017-08-06T15:35:09.689Z,1.17
2017-08-06T15:37:37.279Z,1.30
2017-08-06T15:40:05.594Z,1.13
2017-08-06T15:42:33.137Z,1.20
2017-08-06T15:45:00.717Z,1.47
2017-08-06T15:47:28.266Z,1.63
2017-08-06T15:49:55.838Z,1.27
2017-08-06T15:52:23.396Z,1.57
2017-08-06T15:54:50.965Z,1.00
2017-08-06T15:57:19.371Z,1.17
2017-08-06T15:59:47.547Z,1.47
2017-08-06T16:02:15.090Z,1.10
2017-08-06T16:04:42.682Z,1.50
2017-08-06T16:07:10.233Z,1.17
2017-08-06T16:09:38.583Z,1.20
2017-08-06T16:12:06.175Z,1.33
2017-08-06T16:14:33.726Z,1.20
2017-08-06T16:17:02.058Z,0.90
2017-08-06T16:19:30.403Z,1.33
2017-08-06T16:21:58.470Z,1.23
2017-08-06T16:24:27.397Z,1.20
2017-08-06T16:26:54.985Z,1.30
2017-08-06T16:29:22.591Z,1.13
2017-08-06T16:31:50.130Z,1.70
2017-08-06T16:34:18.469Z,1.50
2017-08-06T16:36:46.026Z,1.47
2017-08-06T16:39:13.597Z,2.90
2017-08-06T16:41:41.140Z,1.93
2017-08-06T16:44:08.713Z,1.50
2017-08-06T16:46:36.262Z,1.33
2017-08-06T16:49:03.830Z,1.50
2017-08-06T16:51:31.372Z,1.20
2017-08-06T16:53:58.946Z,1.60
2017-08-06T16:56:26.491Z,1.20
2017-08-06T16:58:54.025Z,1.37
2017-08-06T17:01:22.199Z,1.73
2017-08-06T17:03:49.738Z,2.10
2017-08-06T17:06:17.330Z,1.20
2017-08-06T17:08:44.875Z,3.30
2017-08-06T17:11:12.421Z,1.63
2017-08-06T17:13:39.997Z,1.60
2017-08-06T17:16:10.019Z,1.80
2017-08-06T17:18:37.634Z,1.40
2017-08-06T17:21:06.125Z,1.50
2017-08-06T17:23:33.710Z,1.50
2017-08-06T17:26:01.254Z,1.33
2017-08-06T17:28:28.910Z,1.30
2017-08-06T17:30:56.452Z,1.93
2017-08-06T17:33:31.599Z,1.40
2017-08-06T17:35:59.168Z,1.30
2017-08-06T17:38:26.746Z,1.47
2017-08-06T17:40:54.323Z,1.93
2017-08-06T17:43:21.905Z,1.77
2017-08-06T17:45:49.491Z,1.40
2017-08-06T17:48:17.047Z,1.87
2017-08-06T17:50:45.354Z,1.73
2017-08-06T17:53:12.966Z,1.77
2017-08-06T17:55:41.275Z,2.00
2017-08-06T17:58:08.821Z,1.60
2017-08-06T18:00:36.416Z,5.00
2017-08-06T18:03:05.107Z,6.23
2017-08-06T18:05:32.665Z,3.80
2017-08-06T18:08:00.294Z,1.90
2017-08-06T18:10:28.755Z,2.13
2017-08-06T18:12:57.935Z,1.67
2017-08-06T18:15:26.264Z,1.80
2017-08-06T18:17:56.129Z,1.67
2017-08-06T18:20:23.696Z,1.83
2017-08-06T18:22:52.716Z,1.87
2017-08-06T18:25:20.297Z,2.07
2017-08-06T18:27:47.981Z,1.70
2017-08-06T18:30:15.569Z,1.80
2017-08-06T18:32:45.551Z,1.57
2017-08-06T18:35:13.145Z,1.70
2017-08-06T18:37:40.707Z,2.10
2017-08-06T18:40:09.877Z,1.77
2017-08-06T18:42:38.405Z,1.80
2017-08-06T18:45:05.942Z,2.27
2017-08-06T18:47:35.212Z,2.73
2017-08-06T18:52:56.844Z,1.60
2017-08-06T18:55:24.442Z,1.60
2017-08-06T18:57:52.180Z,1.70
2017-08-06T19:00:21.860Z,2.37
2017-08-06T19:02:49.967Z,2.30
2017-08-06T19:05:18.351Z,2.20
2017-08-06T19:07:45.950Z,12.73
2017-08-06T19:10:15.095Z,5.67
2017-08-06T19:12:43.158Z,3.20
2017-08-06T19:15:11.302Z,3.20
2017-08-06T19:17:38.929Z,2.70
2017-08-06T19:20:06.533Z,2.23
2017-08-06T19:22:34.095Z,1.80
2017-08-06T19:25:01.652Z,2.23
2017-08-06T19:27:29.240Z,1.90
2017-08-06T19:29:56.828Z,1.90
2017-08-06T19:32:24.427Z,1.90
2017-08-06T19:34:52.393Z,1.87
2017-08-06T19:37:19.938Z,1.97
2017-08-06T19:39:47.548Z,1.40
2017-08-06T19:42:15.110Z,2.07
2017-08-06T19:44:42.718Z,5.60
2017-08-06T19:47:11.360Z,5.10
2017-08-06T19:49:41.805Z,4.23
2017-08-06T19:52:10.198Z,2.73
2017-08-06T19:54:37.757Z,3.07
2017-08-06T19:57:06.843Z,3.00
2017-08-06T19:59:34.691Z,2.50
2017-08-06T20:02:02.290Z,2.93
2017-08-06T20:04:29.853Z,2.47
2017-08-06T20:06:57.423Z,2.53
2017-08-06T20:09:26.555Z,3.50
2017-08-06T20:11:54.118Z,2.50
2017-08-06T20:14:21.712Z,3.30
2017-08-06T20:16:51.082Z,2.57
2017-08-06T20:19:19.796Z,2.93
2017-08-06T20:21:50.797Z,2.70
2017-08-06T20:24:18.370Z,5.47
2017-08-06T20:26:45.939Z,7.70
2017-08-06T20:29:13.540Z,5.43
2017-08-06T20:31:43.595Z,3.63
2017-08-06T20:34:11.202Z,2.80
2017-08-06T20:36:39.887Z,4.90
2017-08-06T20:39:07.444Z,8.63
2017-08-06T20:41:35.032Z,3.00
2017-08-06T20:44:02.578Z,3.27
2017-08-06T20:46:32.228Z,3.40
2017-08-06T20:48:59.792Z,3.17
2017-08-06T20:51:27.419Z,3.13
2017-08-06T20:53:54.983Z,3.17
2017-08-06T20:56:22.530Z,3.10
2017-08-06T20:58:50.159Z,2.67
2017-08-06T21:01:17.712Z,2.53
2017-08-06T21:03:45.319Z,2.87
2017-08-06T21:06:12.932Z,2.83
2017-08-06T21:08:40.565Z,3.20
2017-08-06T21:11:09.060Z,3.07
2017-08-06T21:13:37.172Z,3.20
2017-08-06T21:16:04.785Z,3.07
2017-08-06T21:18:35.498Z,2.50
2017-08-06T21:21:03.127Z,3.00
2017-08-06T21:23:31.456Z,2.53
2017-08-06T21:25:59.013Z,3.60
2017-08-06T21:28:26.607Z,2.87
2017-08-06T21:30:54.205Z,2.70
2017-08-06T21:33:21.762Z,3.37
2017-08-06T21:35:49.358Z,3.20
2017-08-06T21:38:16.917Z,3.00
2017-08-06T21:40:44.466Z,4.00
2017-08-06T21:43:12.058Z,2.60
2017-08-06T21:45:39.606Z,3.50
2017-08-06T21:48:07.843Z,3.10
2017-08-06T21:50:35.408Z,3.47
2017-08-06T21:53:03.575Z,2.60
2017-08-06T21:55:31.198Z,2.90
2017-08-06T21:57:58.755Z,2.67
2017-08-06T22:00:26.353Z,3.10
2017-08-06T22:02:53.910Z,3.20
2017-08-06T22:05:21.503Z,2.97
2017-08-06T22:07:49.682Z,2.53
2017-08-06T22:10:17.244Z,2.67
2017-08-06T22:12:46.027Z,2.43
2017-08-06T22:15:13.587Z,3.00
2017-08-06T22:17:41.196Z,3.17
2017-08-06T22:20:08.756Z,3.17
2017-08-06T22:22:36.320Z,3.40
2017-08-06T22:25:03.918Z,3.03
2017-08-06T22:27:31.474Z,3.00
2017-08-06T22:29:59.097Z,2.80
2017-08-06T22:32:26.660Z,3.07
2017-08-06T22:34:54.223Z,3.83
2017-08-06T22:37:21.816Z,3.00
2017-08-06T22:39:49.379Z,3.43
2017-08-06T22:42:16.926Z,3.10
2017-08-06T22:44:44.524Z,2.83
2017-08-06T22:47:12.127Z,2.67
2017-08-06T22:49:39.689Z,2.53
2017-08-06T22:52:07.238Z,2.97
2017-08-06T22:54:35.594Z,3.50
2017-08-06T22:57:03.449Z,3.33
2017-08-06T22:59:31.013Z,3.50
2017-08-06T23:01:58.599Z,2.73
2017-08-06T23:04:27.738Z,2.70
2017-08-06T23:06:56.170Z,3.77
2017-08-06T23:09:23.718Z,3.07
2017-08-06T23:11:51.310Z,3.40
2017-08-06T23:14:19.639Z,3.33
2017-08-06T23:16:47.205Z,3.30
2017-08-06T23:19:15.485Z,3.30
2017-08-06T23:21:43.042Z,2.97
2017-08-06T23:24:10.624Z,3.20
2017-08-06T23:26:38.220Z,3.13
2017-08-06T23:29:05.765Z,3.90
2017-08-06T23:31:33.343Z,3.43
2017-08-06T23:34:00.906Z,2.80
2017-08-06T23:36:28.813Z,2.93
2017-08-06T23:38:56.366Z,3.27
2017-08-06T23:41:23.909Z,3.17
2017-08-06T23:43:51.503Z,3.50
2017-08-06T23:46:19.066Z,3.67
2017-08-06T23:48:46.657Z,3.00
2017-08-06T23:51:14.205Z,3.17
2017-08-06T23:53:42.534Z,3.83
2017-08-06T23:56:10.127Z,2.80
2017-08-06T23:58:37.718Z,3.33
